Time,TemperatureF,DewpointF,PressureIn,WindDirection,WindDirectionDegrees,WindSpeedMPH,WindSpeedGustMPH,Humidity,HourlyPrecipIn,Conditions,Clouds,dailyrainin,SoftwareType,DateUTC
2013-03-18 00:16:00,17.1,4.0,30.38,NE,38,2.0,3.0,57,0.00,,,0.00,weatherlink.com 1.10,2013-03-18 04:16:00,
2013-03-18 01:01:00,17.3,4.0,30.38,NW,324,0.0,3.0,55,0.00,,,0.00,weatherlink.com 1.10,2013-03-18 05:01:00,
2013-03-18 01:16:00,16.8,4.0,30.39,NW,325,0.0,1.0,58,0.00,,,0.00,weatherlink.com 1.10,2013-03-18 05:16:00,
2013-03-18 01:31:00,15.5,4.0,30.39,NW,325,0.0,1.0,60,0.00,,,0.00,weatherlink.com 1.10,2013-03-18 05:31:00,
2013-03-18 01:46:00,15.4,4.0,30.39,NNE,25,1.0,2.0,62,0.00,,,0.00,weatherlink.com 1.10,2013-03-18 05:46:00,
2013-03-18 02:16:00,15.5,4.0,30.40,NNW,347,0.0,1.0,61,0.00,,,0.00,weatherlink.com 1.10,2013-03-18 06:16:00,
2013-03-18 02:31:00,15.2,5.0,30.40,North,352,0.0,1.0,63,0.00,,,0.00,weatherlink.com 1.10,2013-03-18 06:31:00,
2013-03-18 02:46:00,14.9,5.0,30.40,North,352,0.0,0.0,64,0.00,,,0.00,weatherlink.com 1.10,2013-03-18 06:46:00,
2013-03-18 03:01:00,14.5,5.0,30.40,North,352,0.0,1.0,66,0.00,,,0.00,weatherlink.com 1.10,2013-03-18 07:01:00,
2013-03-18 03:16:00,14.6,5.0,30.39,North,351,0.0,1.0,65,0.00,,,0.00,weatherlink.com 1.10,2013-03-18 07:16:00,
2013-03-18 03:31:00,14.1,5.0,30.39,North,351,0.0,0.0,68,0.00,,,0.00,weatherlink.com 1.10,2013-03-18 07:31:00,
2013-03-18 03:46:00,12.5,5.0,30.40,North,351,0.0,0.0,73,0.00,,,0.00,weatherlink.com 1.10,2013-03-18 07:46:00,
2013-03-18 04:01:00,11.5,6.0,30.40,West,275,0.0,1.0,77,0.00,,,0.00,weatherlink.com 1.10,2013-03-18 08:01:00,
2013-03-18 04:16:00,11.5,6.0,30.41,West,274,0.0,0.0,79,0.00,,,0.00,weatherlink.com 1.10,2013-03-18 08:16:00,
2013-03-18 04:31:00,10.9,6.0,30.41,West,275,0.0,0.0,80,0.00,,,0.00,weatherlink.com 1.10,2013-03-18 08:31:00,
2013-03-18 04:46:00,10.4,6.0,30.42,West,275,0.0,0.0,81,0.00,,,0.00,weatherlink.com 1.10,2013-03-18 08:46:00,
2013-03-18 05:02:00,9.7,5.0,30.42,West,274,0.0,0.0,81,0.00,,,0.00,weatherlink.com 1.10,2013-03-18 09:02:00,
2013-03-18 05:16:00,10.0,6.0,30.42,NNW,342,0.0,0.0,82,0.00,,,0.00,weatherlink.com 1.10,2013-03-18 09:16:00,
2013-03-18 05:31:00,9.5,5.0,30.43,North,1,0.0,1.0,83,0.00,,,0.00,weatherlink.com 1.10,2013-03-18 09:31:00,
2013-03-18 05:46:00,9.4,5.0,30.43,North,359,0.0,0.0,83,0.00,,,0.00,weatherlink.com 1.10,2013-03-18 09:46:00,
2013-03-18 06:01:00,9.4,5.0,30.44,North,359,0.0,0.0,83,0.00,,,0.00,weatherlink.com 1.10,2013-03-18 10:01:00,
2013-03-18 06:17:00,8.8,5.0,30.45,WSW,254,0.0,0.0,84,0.00,,,0.00,weatherlink.com 1.10,2013-03-18 10:17:00,
2013-03-18 06:32:00,8.4,5.0,30.45,WSW,254,0.0,0.0,84,0.00,,,0.00,weatherlink.com 1.10,2013-03-18 10:32:00,
2013-03-18 06:47:00,8.3,5.0,30.46,WSW,254,0.0,1.0,85,0.00,,,0.00,weatherlink.com 1.10,2013-03-18 10:47:00,
2013-03-18 07:02:00,8.6,5.0,30.46,NNW,343,0.0,1.0,85,0.00,,,0.00,weatherlink.com 1.10,2013-03-18 11:02:00,
2013-03-18 07:17:00,9.0,5.0,30.46,NNW,343,0.0,0.0,84,0.00,,,0.00,weatherlink.com 1.10,2013-03-18 11:17:00,
2013-03-18 07:32:00,10.4,7.0,30.47,NNW,344,0.0,0.0,85,0.00,,,0.00,weatherlink.com 1.10,2013-03-18 11:32:00,
2013-03-18 08:02:00,13.1,8.0,30.46,NNW,343,0.0,0.0,79,0.00,,,0.00,weatherlink.com 1.10,2013-03-18 12:02:00,
2013-03-18 08:17:00,15.2,9.0,30.46,NNE,20,0.0,0.0,75,0.00,,,0.00,weatherlink.com 1.10,2013-03-18 12:17:00,
2013-03-18 08:32:00,15.9,9.0,30.46,North,355,0.0,1.0,73,0.00,,,0.00,weatherlink.com 1.10,2013-03-18 12:32:00,
2013-03-18 08:47:00,18.1,9.0,30.46,SSW,192,0.0,1.0,67,0.00,,,0.00,weatherlink.com 1.10,2013-03-18 12:47:00,
2013-03-18 09:02:00,19.1,9.0,30.46,South,184,0.0,1.0,65,0.00,,,0.00,weatherlink.com 1.10,2013-03-18 13:02:00,
2013-03-18 09:17:00,20.3,9.0,30.46,SW,221,1.0,3.0,61,0.00,,,0.00,weatherlink.com 1.10,2013-03-18 13:17:00,
2013-03-18 09:32:00,20.9,8.0,30.47,SSW,197,0.0,5.0,58,0.00,,,0.00,weatherlink.com 1.10,2013-03-18 13:32:00,
2013-03-18 09:47:00,22.3,9.0,30.47,SSW,199,0.0,4.0,58,0.00,,,0.00,weatherlink.com 1.10,2013-03-18 13:47:00,
2013-03-18 10:02:00,22.7,7.0,30.46,West,263,3.0,5.0,50,0.00,,,0.00,weatherlink.com 1.10,2013-03-18 14:02:00,
2013-03-18 10:17:00,23.8,8.0,30.46,SW,215,5.0,7.0,51,0.00,,,0.00,weatherlink.com 1.10,2013-03-18 14:17:00,
2013-03-18 10:32:00,24.3,8.0,30.46,SW,218,5.0,5.0,51,0.00,,,0.00,weatherlink.com 1.10,2013-03-18 14:32:00,
2013-03-18 10:47:00,24.5,7.0,30.45,WSW,257,0.0,3.0,48,0.00,,,0.00,weatherlink.com 1.10,2013-03-18 14:47:00,
2013-03-18 11:02:00,25.1,6.0,30.45,SW,219,0.0,6.0,45,0.00,,,0.00,weatherlink.com 1.10,2013-03-18 15:02:00,
2013-03-18 11:17:00,25.7,7.0,30.44,NNE,29,1.0,5.0,45,0.00,,,0.00,weatherlink.com 1.10,2013-03-18 15:17:00,
2013-03-18 11:32:00,26.3,7.0,30.44,ESE,107,0.0,6.0,44,0.00,,,0.00,weatherlink.com 1.10,2013-03-18 15:32:00,
2013-03-18 11:47:00,26.2,6.0,30.43,NNW,334,0.0,5.0,42,0.00,,,0.00,weatherlink.com 1.10,2013-03-18 15:47:00,
2013-03-18 12:02:00,27.7,6.0,30.42,NW,319,1.0,4.0,39,0.00,,,0.00,weatherlink.com 1.10,2013-03-18 16:02:00,
2013-03-18 12:17:00,28.1,5.0,30.41,SW,235,1.0,5.0,38,0.00,,,0.00,weatherlink.com 1.10,2013-03-18 16:17:00,
2013-03-18 12:32:00,28.4,5.0,30.40,SSW,206,1.0,2.0,37,0.00,,,0.00,weatherlink.com 1.10,2013-03-18 16:32:00,
2013-03-18 12:47:00,30.4,7.0,30.39,WSW,246,0.0,1.0,37,0.00,,,0.00,weatherlink.com 1.10,2013-03-18 16:47:00,
2013-03-18 13:02:00,30.2,7.0,30.39,SW,232,0.0,7.0,37,0.00,,,0.00,weatherlink.com 1.10,2013-03-18 17:02:00,
2013-03-18 13:17:00,30.1,6.0,30.37,NNE,22,1.0,4.0,36,0.00,,,0.00,weatherlink.com 1.10,2013-03-18 17:17:00,
2013-03-18 13:32:00,30.1,7.0,30.36,NW,304,0.0,6.0,38,0.00,,,0.00,weatherlink.com 1.10,2013-03-18 17:32:00,
2013-03-18 13:47:00,30.0,8.0,30.36,NNW,333,2.0,4.0,40,0.00,,,0.00,weatherlink.com 1.10,2013-03-18 17:47:00,
2013-03-18 14:02:00,30.3,7.0,30.35,SW,225,1.0,3.0,37,0.00,,,0.00,weatherlink.com 1.10,2013-03-18 18:02:00,
2013-03-18 14:17:00,31.6,8.0,30.33,NW,308,1.0,3.0,37,0.00,,,0.00,weatherlink.com 1.10,2013-03-18 18:17:00,
2013-03-18 14:32:00,31.3,8.0,30.32,NW,308,0.0,3.0,37,0.00,,,0.00,weatherlink.com 1.10,2013-03-18 18:32:00,
2013-03-18 14:47:00,31.9,9.0,30.32,West,260,1.0,3.0,39,0.00,,,0.00,weatherlink.com 1.10,2013-03-18 18:47:00,
2013-03-18 15:03:00,32.8,9.0,30.30,WNW,286,2.0,2.0,37,0.00,,,0.00,weatherlink.com 1.10,2013-03-18 19:03:00,
2013-03-18 15:18:00,32.9,9.0,30.29,WNW,288,1.0,3.0,37,0.00,,,0.00,weatherlink.com 1.10,2013-03-18 19:18:00,
2013-03-18 15:33:00,33.2,9.0,30.29,SW,233,0.0,3.0,37,0.00,,,0.00,weatherlink.com 1.10,2013-03-18 19:33:00,
2013-03-18 15:48:00,33.3,9.0,30.28,WNW,284,3.0,4.0,37,0.00,,,0.00,weatherlink.com 1.10,2013-03-18 19:48:00,
2013-03-18 16:03:00,33.0,10.0,30.27,West,267,1.0,2.0,39,0.00,,,0.00,weatherlink.com 1.10,2013-03-18 20:03:00,
2013-03-18 16:18:00,33.0,10.0,30.27,SSW,208,0.0,6.0,39,0.00,,,0.00,weatherlink.com 1.10,2013-03-18 20:18:00,
2013-03-18 16:33:00,32.7,10.0,30.26,South,171,0.0,2.0,38,0.00,,,0.00,weatherlink.com 1.10,2013-03-18 20:33:00,
2013-03-18 16:48:00,32.7,10.0,30.25,NNW,336,0.0,1.0,39,0.00,,,0.00,weatherlink.com 1.10,2013-03-18 20:48:00,
2013-03-18 17:03:00,32.6,11.0,30.24,NW,325,1.0,1.0,40,0.00,,,0.00,weatherlink.com 1.10,2013-03-18 21:03:00,
2013-03-18 17:18:00,31.9,13.0,30.23,NW,315,0.0,2.0,46,0.00,,,0.00,weatherlink.com 1.10,2013-03-18 21:18:00,
2013-03-18 17:33:00,31.4,13.0,30.22,NW,319,1.0,3.0,46,0.00,,,0.00,weatherlink.com 1.10,2013-03-18 21:33:00,
2013-03-18 17:48:00,31.2,13.0,30.22,WNW,301,0.0,3.0,48,0.00,,,0.00,weatherlink.com 1.10,2013-03-18 21:48:00,
2013-03-18 18:03:00,31.1,14.0,30.22,NW,309,0.0,2.0,49,0.00,,,0.00,weatherlink.com 1.10,2013-03-18 22:03:00,
2013-03-18 18:18:00,31.0,14.0,30.22,West,265,0.0,1.0,50,0.00,,,0.00,weatherlink.com 1.10,2013-03-18 22:18:00,
2013-03-18 18:33:00,30.6,14.0,30.21,NW,323,0.0,1.0,50,0.00,,,0.00,weatherlink.com 1.10,2013-03-18 22:33:00,
2013-03-18 18:48:00,30.4,15.0,30.20,NW,323,0.0,1.0,52,0.00,,,0.00,weatherlink.com 1.10,2013-03-18 22:48:00,
2013-03-18 19:03:00,30.2,15.0,30.19,North,3,0.0,1.0,53,0.00,,,0.00,weatherlink.com 1.10,2013-03-18 23:03:00,
2013-03-18 19:18:00,29.6,15.0,30.19,NNW,344,0.0,1.0,54,0.00,,,0.00,weatherlink.com 1.10,2013-03-18 23:18:00,
2013-03-18 19:33:00,29.7,14.0,30.20,NNW,344,0.0,1.0,53,0.00,,,0.00,weatherlink.com 1.10,2013-03-18 23:33:00,
2013-03-18 19:48:00,29.4,15.0,30.20,NNW,343,0.0,0.0,55,0.00,,,0.00,weatherlink.com 1.10,2013-03-18 23:48:00,
2013-03-18 20:03:00,29.1,14.0,30.19,NNW,343,0.0,0.0,53,0.00,,,0.00,weatherlink.com 1.10,2013-03-19 00:03:00,
2013-03-18 20:18:00,29.2,16.0,30.18,NNW,344,0.0,1.0,59,0.00,,,0.00,weatherlink.com 1.10,2013-03-19 00:18:00,
2013-03-18 20:33:00,28.8,16.0,30.17,NNW,344,0.0,1.0,58,0.00,,,0.00,weatherlink.com 1.10,2013-03-19 00:33:00,
2013-03-18 20:48:00,28.9,15.0,30.17,NNW,332,0.0,1.0,56,0.00,,,0.00,weatherlink.com 1.10,2013-03-19 00:48:00,
2013-03-18 21:03:00,28.9,14.0,30.17,NNW,333,0.0,0.0,54,0.00,,,0.00,weatherlink.com 1.10,2013-03-19 01:03:00,
2013-03-18 21:18:00,29.3,16.0,30.17,West,279,0.0,1.0,59,0.00,,,0.00,weatherlink.com 1.10,2013-03-19 01:18:00,
2013-03-18 21:33:00,29.3,17.0,30.18,West,266,0.0,1.0,60,0.00,,,0.00,weatherlink.com 1.10,2013-03-19 01:33:00,
2013-03-18 21:48:00,29.3,18.0,30.18,West,266,0.0,0.0,62,0.00,,,0.00,weatherlink.com 1.10,2013-03-19 01:48:00,
2013-03-18 22:03:00,29.3,18.0,30.16,West,266,0.0,1.0,63,0.00,,,0.00,weatherlink.com 1.10,2013-03-19 02:03:00,
2013-03-18 22:18:00,29.2,18.0,30.16,West,267,0.0,0.0,63,0.00,,,0.00,weatherlink.com 1.10,2013-03-19 02:18:00,
2013-03-18 22:33:00,29.2,18.0,30.15,WSW,252,0.0,1.0,64,0.00,,,0.00,weatherlink.com 1.10,2013-03-19 02:33:00,
2013-03-18 22:48:00,29.1,19.0,30.15,SW,217,0.0,3.0,66,0.00,,,0.00,weatherlink.com 1.10,2013-03-19 02:48:00,
2013-03-18 23:03:00,29.0,20.0,30.14,SW,230,0.0,2.0,69,0.00,,,0.00,weatherlink.com 1.10,2013-03-19 03:03:00,
2013-03-18 23:18:00,29.3,18.0,30.14,SW,216,2.0,9.0,63,0.00,,,0.00,weatherlink.com 1.10,2013-03-19 03:18:00,
2013-03-18 23:33:00,30.0,22.0,30.14,SSW,192,8.0,8.0,73,0.00,,,0.00,weatherlink.com 1.10,2013-03-19 03:33:00,
2013-03-18 23:48:00,29.9,24.0,30.13,SSE,168,6.0,10.0,78,0.00,,,0.00,weatherlink.com 1.10,2013-03-19 03:48:00,